CheckWX is a tool to help pilots better visualize weather data.  It is not intended as a substitute for an official pre-flight weather briefing.

04:10:14 UTC

KSUN METAR
Friedman Memorial Airport
Hailey, Idaho, USA
Current

16 mins ago

KSUN 250354Z 29005KT 10SM SKC 11/M05 A3012
Observed
Apr-25 @ 03:54 UTC
Wind
  • 290° at 5 KTS
Visibility
10 SM
Flight Rules
VFR
Cloud Levels
  • Clear skies
Temperature
11°C / 52°F
Dewpoint
-5°C / 23°F
Humidity
32%
Altimeter
30.12" Hg
Pressure
1020.02 hPa
Previous

1 hour ago

KSUN 250253Z 28004KT 10SM SKC 13/M06 A3009
Observed
Apr-25 @ 02:53 UTC
Wind
  • 280° at 4 KTS
Visibility
10 SM
Flight Rules
VFR
Cloud Levels
  • Clear skies
Temperature
13°C / 55°F
Dewpoint
-6°C / 21°F
Humidity
26%
Altimeter
30.09" Hg
Pressure
1018.92 hPa
Previous

2 hours ago

KSUN 250157Z 28007KT 10SM SKC 14/M06 A3006
Observed
Apr-25 @ 01:57 UTC
Wind
  • 280° at 7 KTS
Visibility
10 SM
Flight Rules
VFR
Cloud Levels
  • Clear skies
Temperature
14°C / 57°F
Dewpoint
-6°C / 21°F
Humidity
25%
Altimeter
30.06" Hg
Pressure
1017.92 hPa